Terminal Aerodrome Forecast
Issued by NWS Corpus Christi, TX

Home | Current Version | Previous Version | Text Only | Print | Product List | Glossary On
Versions: 1 2 3 4 5 6 7 8 9 10 11 12 13 14 15 16 17 18 19 20 21 22 23
000
FTUS44 KCRP 231100 AAB
TAFCRP
TAF AMD
KCRP 231143Z 2312/2412 23005KT 2SM BR BKN002
      TEMPO 2312/2314 1/2SM FG VV002
     FM231430 25012KT P6SM SKC
     FM232300 21008KT P6SM SKC
     FM240800 01015G21KT P6SM SKC=

USA.gov is the U.S. government's official web portal to all federal, state and local government web resources and services.